Time;durP1;ratioP1;P1;durP2;ratioP2;P2;SDS_P1;SDS_P2;PMS_P1;PMS_P2;Temp;Humidity;BMP_temperature;BMP_pressure;BME280_temperature;BME280_humidity;BME280_pressure;Samples;Min_cycle;Max_cycle;Signal;HPM_P1;HPM_P2
2023/08/13 00:01:13;;;;;;;1.83;1.50;;;21.40;99.90;;;;;;5072947;28;20021;-37
2023/08/13 00:03:39;;;;;;;2.53;1.63;;;21.40;99.90;;;;;;5072885;28;20029;-39
2023/08/13 00:06:05;;;;;;;1.73;1.52;;;21.40;99.90;;;;;;5072907;28;20078;-40
2023/08/13 00:08:31;;;;;;;2.75;1.70;;;21.40;99.90;;;;;;5072838;28;20024;-43
2023/08/13 00:10:56;;;;;;;2.58;1.60;;;21.40;99.90;;;;;;5072529;28;20020;-42
2023/08/13 00:13:22;;;;;;;2.50;1.90;;;21.40;99.90;;;;;;5072674;28;20044;-38
2023/08/13 00:15:47;;;;;;;1.58;1.30;;;21.40;99.90;;;;;;5072638;28;20528;-40
2023/08/13 00:18:13;;;;;;;2.92;1.73;;;21.40;99.90;;;;;;5072700;28;20145;-38
2023/08/13 00:20:39;;;;;;;1.85;1.50;;;21.40;99.90;;;;;;5072393;28;20107;-41
2023/08/13 00:23:04;;;;;;;3.28;1.75;;;21.40;99.90;;;;;;5071504;28;20061;-40
2023/08/13 00:25:30;;;;;;;2.47;1.40;;;21.40;99.90;;;;;;5072552;28;20474;-44
2023/08/13 00:27:55;;;;;;;2.97;1.73;;;21.40;99.90;;;;;;5072431;28;20024;-37
2023/08/13 00:30:21;;;;;;;2.22;1.67;;;21.30;99.90;;;;;;5072214;28;20029;-40
2023/08/13 00:32:46;;;;;;;2.33;1.73;;;21.40;99.90;;;;;;5072383;28;20420;-38
2023/08/13 00:35:12;;;;;;;1.65;1.50;;;21.40;99.90;;;;;;5072378;28;20056;-39
2023/08/13 00:37:38;;;;;;;2.80;1.70;;;21.30;99.90;;;;;;5072267;28;20033;-42
2023/08/13 00:40:04;;;;;;;2.40;1.50;;;21.40;99.90;;;;;;5071934;28;20056;-39
2023/08/13 00:42:30;;;;;;;1.80;1.20;;;21.40;99.90;;;;;;5072160;28;20422;-42
2023/08/13 00:44:56;;;;;;;2.53;1.40;;;21.30;99.90;;;;;;5072058;28;20028;-41
2023/08/13 00:47:21;;;;;;;1.75;1.40;;;21.40;99.90;;;;;;5072263;28;20024;-38
2023/08/13 00:49:49;;;;;;;3.53;1.63;;;21.30;99.90;;;;;;5071855;28;20028;-36
2023/08/13 00:52:15;;;;;;;1.70;1.20;;;21.30;99.90;;;;;;5072061;28;20039;-38
2023/08/13 00:54:41;;;;;;;1.90;1.42;;;21.40;99.90;;;;;;5072199;28;20024;-42
2023/08/13 00:57:08;;;;;;;1.65;1.45;;;21.30;99.90;;;;;;5071981;28;20094;-40
2023/08/13 00:59:34;;;;;;;1.65;1.45;;;21.30;99.90;;;;;;5072108;28;20028;-44
2023/08/13 01:02:00;;;;;;;6.05;1.50;;;21.30;99.90;;;;;;5071898;28;20102;-41
2023/08/13 01:04:25;;;;;;;2.20;1.38;;;21.30;99.90;;;;;;5072030;28;20103;-36
2023/08/13 01:06:59;;;;;;;4.97;1.70;;;21.30;99.90;;;;;;5071775;28;20017;-40
2023/08/13 01:09:50;;;;;;;1.90;1.50;;;21.30;99.90;;;;;;5071445;28;20485;-41
2023/08/13 01:12:16;;;;;;;2.70;1.30;;;21.30;99.90;;;;;;5071726;28;20039;-38
2023/08/13 01:15:07;;;;;;;1.90;1.30;;;21.30;99.90;;;;;;5071604;28;20028;-38
2023/08/13 01:17:35;;;;;;;2.22;1.50;;;21.30;99.90;;;;;;5071624;28;20451;-38
2023/08/13 01:20:07;;;;;;;3.45;1.30;;;21.30;99.90;;;;;;5071210;28;20435;-39
2023/08/13 01:22:46;;;;;;;1.70;1.20;;;21.30;99.90;;;;;;5071622;28;20024;-37
2023/08/13 01:25:12;;;;;;;3.13;1.45;;;21.30;99.90;;;;;;5071598;28;20108;-40
2023/08/13 01:28:04;;;;;;;1.90;1.40;;;21.30;99.90;;;;;;5071491;28;20099;-40
2023/08/13 01:30:34;;;;;;;3.28;1.45;;;21.20;99.90;;;;;;5071791;28;20360;-39
2023/08/13 01:33:03;;;;;;;2.97;1.40;;;21.30;99.90;;;;;;5071561;28;20032;-39
2023/08/13 01:35:32;;;;;;;2.25;1.23;;;21.30;99.90;;;;;;5071447;28;20031;-39
2023/08/13 01:37:58;;;;;;;2.55;1.45;;;21.20;99.90;;;;;;5071459;28;20032;-37
2023/08/13 01:40:24;;;;;;;2.03;1.40;;;21.30;99.90;;;;;;5071141;28;20052;-41
2023/08/13 01:42:50;;;;;;;3.25;1.30;;;21.20;99.90;;;;;;5071123;28;20052;-41
2023/08/13 01:45:16;;;;;;;1.90;1.50;;;21.20;99.90;;;;;;5071304;28;20032;-41
2023/08/13 01:47:41;;;;;;;3.47;1.33;;;21.20;99.90;;;;;;5071297;28;20020;-39
2023/08/13 01:50:07;;;;;;;1.90;1.25;;;21.20;99.90;;;;;;5071055;28;20024;-40
2023/08/13 01:52:33;;;;;;;2.85;1.58;;;21.20;99.90;;;;;;5071268;28;20033;-41
2023/08/13 01:54:58;;;;;;;1.63;1.38;;;21.20;99.90;;;;;;5071087;28;20025;-40
2023/08/13 01:57:24;;;;;;;1.65;1.25;;;21.20;99.90;;;;;;5071050;28;20078;-40
2023/08/13 01:59:49;;;;;;;4.38;1.20;;;21.20;99.90;;;;;;5074112;28;20036;-40
2023/08/13 02:02:15;;;;;;;3.85;1.40;;;21.20;99.90;;;;;;5075306;28;20024;-39
2023/08/13 02:04:41;;;;;;;1.33;1.15;;;21.20;99.90;;;;;;5075135;28;20565;-40
2023/08/13 02:07:07;;;;;;;2.83;1.40;;;21.20;99.90;;;;;;5075202;28;20104;-41
2023/08/13 02:09:32;;;;;;;2.08;1.60;;;21.20;99.90;;;;;;5074888;28;20024;-40
2023/08/13 02:11:58;;;;;;;1.48;1.30;;;21.20;99.90;;;;;;5075020;28;20029;-45
2023/08/13 02:14:24;;;;;;;4.95;1.27;;;21.20;99.90;;;;;;5074996;28;20036;-41
2023/08/13 02:16:50;;;;;;;4.03;1.30;;;21.20;99.90;;;;;;5074906;28;20040;-42
2023/08/13 02:19:15;;;;;;;2.28;1.38;;;21.20;99.90;;;;;;5074638;28;20032;-40
2023/08/13 02:21:41;;;;;;;2.05;1.10;;;21.20;99.90;;;;;;5074907;28;20033;-40
2023/08/13 02:24:07;;;;;;;2.53;1.60;;;21.20;99.90;;;;;;5074812;28;20023;-37
2023/08/13 02:26:32;;;;;;;1.40;1.10;;;21.20;99.90;;;;;;5074675;28;20474;-39
2023/08/13 02:28:58;;;;;;;2.13;1.30;;;21.20;99.90;;;;;;5074584;28;20028;-40
2023/08/13 02:31:23;;;;;;;1.30;1.10;;;21.20;99.90;;;;;;5074742;28;20021;-39
2023/08/13 02:33:49;;;;;;;1.50;1.40;;;21.20;99.90;;;;;;5074585;28;20103;-39
2023/08/13 02:36:14;;;;;;;1.85;1.20;;;21.20;99.90;;;;;;5074776;28;20082;-42
2023/08/13 02:38:40;;;;;;;1.13;1.00;;;21.20;99.90;;;;;;5074411;28;20059;-38
2023/08/13 02:41:06;;;;;;;1.70;1.17;;;21.20;99.90;;;;;;5074286;28;20020;-40
2023/08/13 02:43:55;;;;;;;1.85;1.17;;;21.20;99.90;;;;;;5074464;28;20050;-38
2023/08/13 02:46:25;;;;;;;1.83;1.20;;;21.20;99.90;;;;;;5074582;28;20032;-40
2023/08/13 02:48:54;;;;;;;1.50;1.30;;;21.20;99.90;;;;;;5074409;28;20115;-38
2023/08/13 02:51:20;;;;;;;3.63;1.27;;;21.20;99.90;;;;;;5074345;28;20417;-44
2023/08/13 02:53:46;;;;;;;2.75;1.45;;;21.20;99.90;;;;;;5074452;28;20024;-42
2023/08/13 02:56:11;;;;;;;2.15;1.10;;;21.20;99.90;;;;;;5074446;28;20044;-39
2023/08/13 02:58:37;;;;;;;2.30;1.20;;;21.20;99.90;;;;;;5074092;28;20442;-40
2023/08/13 03:01:03;;;;;;;1.90;1.27;;;21.20;99.90;;;;;;5074019;28;20045;-45
2023/08/13 03:03:29;;;;;;;1.88;1.20;;;21.20;99.90;;;;;;5074088;28;20020;-46
2023/08/13 03:05:54;;;;;;;2.13;1.20;;;21.20;99.90;;;;;;5074080;28;20412;-39
2023/08/13 03:08:20;;;;;;;1.98;1.10;;;21.20;99.90;;;;;;5073941;28;20028;-39
2023/08/13 03:10:46;;;;;;;1.98;1.38;;;21.20;99.90;;;;;;5072537;28;20035;-40
2023/08/13 03:13:12;;;;;;;1.38;1.15;;;21.20;99.90;;;;;;5074294;28;20024;-40
2023/08/13 03:15:37;;;;;;;2.13;1.30;;;21.20;99.90;;;;;;5074002;28;20038;-41
2023/08/13 03:18:03;;;;;;;1.88;1.42;;;21.20;99.90;;;;;;5073885;28;20024;-37
2023/08/13 03:20:29;;;;;;;1.30;1.10;;;21.20;99.90;;;;;;5073997;28;20063;-37
2023/08/13 03:22:55;;;;;;;1.65;1.33;;;21.20;99.90;;;;;;5073642;28;20359;-39
2023/08/13 03:25:21;;;;;;;1.67;1.10;;;21.20;99.90;;;;;;5073678;28;20020;-40
2023/08/13 03:27:48;;;;;;;3.08;1.38;;;21.20;99.90;;;;;;5073708;28;20081;-43
2023/08/13 03:30:14;;;;;;;1.85;1.30;;;21.20;99.90;;;;;;5073443;28;20085;-40
2023/08/13 03:32:39;;;;;;;3.17;1.20;;;21.20;99.90;;;;;;5073554;28;20028;-38
2023/08/13 03:35:05;;;;;;;1.90;1.17;;;21.10;99.90;;;;;;5073547;28;20037;-41
2023/08/13 03:37:31;;;;;;;1.38;1.10;;;21.20;99.90;;;;;;5073594;28;20104;-39
2023/08/13 03:39:56;;;;;;;1.60;1.15;;;21.10;99.90;;;;;;5073165;28;20502;-40
2023/08/13 03:42:22;;;;;;;1.90;1.20;;;21.10;99.90;;;;;;5073540;28;20067;-41
2023/08/13 03:44:48;;;;;;;2.35;1.30;;;21.10;99.90;;;;;;5073401;28;20469;-37
2023/08/13 03:47:14;;;;;;;2.35;1.13;;;21.10;99.90;;;;;;5073350;28;20402;-40
2023/08/13 03:49:40;;;;;;;2.95;1.00;;;21.10;99.90;;;;;;5072980;28;20043;-45
2023/08/13 03:52:06;;;;;;;2.05;1.23;;;21.10;99.90;;;;;;5073533;28;20363;-41
2023/08/13 03:54:31;;;;;;;3.80;1.20;;;21.10;99.90;;;;;;5073083;28;20037;-40
2023/08/13 03:56:57;;;;;;;7.30;1.52;;;21.10;99.90;;;;;;5073177;28;20025;-46
2023/08/13 03:59:23;;;;;;;4.70;1.23;;;21.10;99.90;;;;;;5072892;28;20071;-40
2023/08/13 04:01:48;;;;;;;3.42;1.10;;;21.10;99.90;;;;;;5073102;28;20020;-40
2023/08/13 04:04:14;;;;;;;1.13;1.00;;;21.10;99.90;;;;;;5073427;28;20098;-44
2023/08/13 04:06:40;;;;;;;2.67;1.27;;;21.10;99.90;;;;;;5072920;28;20512;-42
2023/08/13 04:09:06;;;;;;;1.60;1.20;;;21.10;99.90;;;;;;5072646;28;20524;-40
2023/08/13 04:11:32;;;;;;;3.17;1.05;;;21.10;99.90;;;;;;5073126;28;20086;-42
2023/08/13 04:13:57;;;;;;;3.55;1.30;;;21.10;99.90;;;;;;5072649;28;20494;-41
2023/08/13 04:16:23;;;;;;;1.42;1.10;;;21.10;99.90;;;;;;5072672;28;20036;-38
2023/08/13 04:18:50;;;;;;;1.40;1.30;;;21.10;99.90;;;;;;5072473;28;20025;-42
2023/08/13 04:21:16;;;;;;;1.95;1.10;;;21.10;99.90;;;;;;5072063;28;20020;-39
2023/08/13 04:23:42;;;;;;;1.63;1.13;;;21.10;99.90;;;;;;5072671;28;20107;-42
2023/08/13 04:26:07;;;;;;;2.17;1.17;;;21.10;99.90;;;;;;5072560;28;20174;-40
2023/08/13 04:28:34;;;;;;;2.08;1.17;;;21.10;99.90;;;;;;5072487;28;20032;-39
2023/08/13 04:30:59;;;;;;;1.20;1.10;;;21.10;99.90;;;;;;5072647;28;20056;-39
2023/08/13 04:33:25;;;;;;;1.55;1.05;;;21.10;99.90;;;;;;5072313;28;20064;-39
2023/08/13 04:35:54;;;;;;;2.25;1.20;;;21.10;99.90;;;;;;5072394;28;20020;-42
2023/08/13 04:38:21;;;;;;;1.33;1.00;;;21.10;99.90;;;;;;5072238;28;20481;-44
2023/08/13 04:40:48;;;;;;;1.80;1.27;;;21.10;99.90;;;;;;5072009;28;20428;-42
2023/08/13 04:43:14;;;;;;;2.45;1.30;;;21.10;99.90;;;;;;5072129;28;20100;-37
2023/08/13 04:45:40;;;;;;;1.50;1.23;;;21.10;99.90;;;;;;5072203;28;20021;-42
2023/08/13 04:48:06;;;;;;;1.40;1.00;;;21.10;99.90;;;;;;5072032;28;20092;-39
2023/08/13 04:50:32;;;;;;;1.60;1.00;;;21.10;99.90;;;;;;5071871;28;20025;-40
2023/08/13 04:52:58;;;;;;;1.08;0.98;;;21.10;99.90;;;;;;5071940;28;20029;-45
2023/08/13 04:55:23;;;;;;;1.80;1.10;;;21.10;99.90;;;;;;5071952;28;20031;-40
2023/08/13 04:57:49;;;;;;;1.15;0.90;;;21.10;99.90;;;;;;5072398;28;20035;-39
2023/08/13 05:00:15;;;;;;;1.67;1.10;;;21.10;99.90;;;;;;5071973;28;20036;-42
2023/08/13 05:02:41;;;;;;;2.00;1.08;;;21.10;99.90;;;;;;5072028;28;20090;-39
2023/08/13 05:05:07;;;;;;;2.25;1.20;;;21.10;99.90;;;;;;5071874;28;20486;-39
2023/08/13 05:07:32;;;;;;;1.70;1.10;;;21.00;99.90;;;;;;5072070;28;20016;-39
2023/08/13 05:09:58;;;;;;;1.45;0.90;;;21.10;99.90;;;;;;5071547;28;20035;-38
2023/08/13 05:12:24;;;;;;;1.75;1.15;;;21.10;99.90;;;;;;5071846;28;20089;-40
2023/08/13 05:14:49;;;;;;;2.25;1.15;;;21.10;99.90;;;;;;5071598;28;20029;-39
2023/08/13 05:17:19;;;;;;;1.48;1.00;;;21.10;99.90;;;;;;5071438;28;20036;-41
2023/08/13 05:19:45;;;;;;;4.22;1.17;;;21.10;99.90;;;;;;5071319;28;20048;-42
2023/08/13 05:22:11;;;;;;;1.75;1.15;;;21.00;99.90;;;;;;5071522;28;20019;-40
2023/08/13 05:24:37;;;;;;;2.63;1.13;;;21.10;99.90;;;;;;5071510;28;20432;-42
2023/08/13 05:27:03;;;;;;;1.73;1.05;;;21.10;99.90;;;;;;5070177;28;20025;-42
2023/08/13 05:29:29;;;;;;;3.35;1.10;;;21.00;99.90;;;;;;5071266;28;20020;-42
2023/08/13 05:31:54;;;;;;;3.72;1.33;;;21.00;99.90;;;;;;5070319;28;20039;-42
2023/08/13 05:34:21;;;;;;;4.80;1.02;;;21.00;99.90;;;;;;5070506;28;20043;-38
2023/08/13 05:36:47;;;;;;;1.85;1.30;;;21.10;99.90;;;;;;5071374;28;20422;-39
2023/08/13 05:39:12;;;;;;;2.35;1.10;;;21.10;99.90;;;;;;5071297;28;20173;-42
2023/08/13 05:41:38;;;;;;;1.50;0.90;;;21.10;99.90;;;;;;5071375;28;20017;-39
2023/08/13 05:44:04;;;;;;;1.73;1.10;;;21.00;99.90;;;;;;5071261;28;20389;-44
2023/08/13 05:46:29;;;;;;;1.48;1.10;;;21.10;99.90;;;;;;5071341;28;20047;-42
2023/08/13 05:48:55;;;;;;;1.83;1.08;;;21.00;99.90;;;;;;5071231;28;20024;-42
2023/08/13 05:51:22;;;;;;;2.25;1.08;;;21.10;99.90;;;;;;5071193;28;20062;-44
2023/08/13 05:53:47;;;;;;;1.67;1.20;;;21.00;99.90;;;;;;5071073;28;20478;-39
2023/08/13 05:56:13;;;;;;;1.25;1.00;;;21.10;99.90;;;;;;5071207;28;20039;-39
2023/08/13 05:58:38;;;;;;;1.92;1.20;;;21.00;99.90;;;;;;5071093;28;20486;-41
2023/08/13 06:01:04;;;;;;;2.22;1.10;;;21.00;99.90;;;;;;5070874;28;20021;-37
2023/08/13 06:03:30;;;;;;;1.73;1.10;;;21.00;99.90;;;;;;5071074;28;20021;-38
2023/08/13 06:05:56;;;;;;;2.22;1.15;;;21.00;99.90;;;;;;5071088;28;20505;-38
2023/08/13 06:08:22;;;;;;;1.30;0.82;;;21.00;99.90;;;;;;5071139;28;20056;-41
2023/08/13 06:10:47;;;;;;;1.85;0.90;;;21.00;99.90;;;;;;5070944;28;20059;-37
2023/08/13 06:13:13;;;;;;;2.97;1.33;;;21.00;99.90;;;;;;5071007;28;20032;-42
2023/08/13 06:15:39;;;;;;;1.33;1.02;;;21.00;99.90;;;;;;5070902;28;20093;-38
2023/08/13 06:18:05;;;;;;;1.70;0.88;;;21.00;99.90;;;;;;5071139;28;20390;-38
2023/08/13 06:20:31;;;;;;;1.60;1.20;;;21.00;99.90;;;;;;5070833;28;20028;-44
2023/08/13 06:22:57;;;;;;;3.58;1.52;;;21.00;99.90;;;;;;5070871;28;20024;-40
2023/08/13 06:25:23;;;;;;;1.92;0.85;;;21.00;99.90;;;;;;5071383;28;20024;-44
2023/08/13 06:27:48;;;;;;;4.10;0.80;;;21.00;99.90;;;;;;5069591;28;20115;-39
2023/08/13 06:30:14;;;;;;;1.48;1.00;;;21.00;99.90;;;;;;5070495;28;20158;-40
2023/08/13 06:32:39;;;;;;;1.75;1.10;;;21.00;99.90;;;;;;5070885;28;20028;-38
2023/08/13 06:35:06;;;;;;;1.98;1.10;;;21.00;99.90;;;;;;5069438;28;20115;-39
2023/08/13 06:37:32;;;;;;;1.67;1.27;;;21.00;99.90;;;;;;5069663;28;20025;-41
2023/08/13 06:39:57;;;;;;;1.40;0.95;;;21.00;99.90;;;;;;5070608;28;20385;-42
2023/08/13 06:42:23;;;;;;;1.45;1.00;;;21.00;99.90;;;;;;5070766;28;20363;-42
2023/08/13 06:44:49;;;;;;;1.10;1.00;;;21.00;99.90;;;;;;5071925;28;20048;-40
2023/08/13 06:47:15;;;;;;;1.45;1.15;;;21.00;99.90;;;;;;5074470;28;20029;-41
2023/08/13 06:49:40;;;;;;;3.25;0.98;;;21.00;99.90;;;;;;5074094;28;20035;-39
2023/08/13 06:52:06;;;;;;;3.88;1.10;;;21.00;99.90;;;;;;5074357;28;20021;-40
2023/08/13 06:54:32;;;;;;;2.80;1.10;;;21.00;99.90;;;;;;5074256;28;20021;-43
2023/08/13 06:56:58;;;;;;;1.83;0.95;;;21.00;99.90;;;;;;5074357;28;20032;-37
2023/08/13 06:59:24;;;;;;;1.83;1.30;;;21.00;99.90;;;;;;5073858;28;20124;-41
2023/08/13 07:01:50;;;;;;;1.83;1.05;;;21.00;99.90;;;;;;5074666;28;20526;-41
2023/08/13 07:04:16;;;;;;;1.63;1.20;;;21.00;99.90;;;;;;5074187;28;20020;-40
2023/08/13 07:06:41;;;;;;;1.80;1.10;;;21.00;99.90;;;;;;5074083;28;20028;-41
2023/08/13 07:09:07;;;;;;;1.92;1.00;;;21.00;99.90;;;;;;5073857;28;20024;-37
2023/08/13 07:11:33;;;;;;;1.85;0.98;;;21.00;99.90;;;;;;5074057;28;20067;-41
2023/08/13 07:13:59;;;;;;;1.60;1.20;;;21.00;99.90;;;;;;5073822;28;20426;-38
2023/08/13 07:16:24;;;;;;;1.15;1.00;;;21.00;99.90;;;;;;5073856;28;20029;-44
2023/08/13 07:18:50;;;;;;;1.27;0.95;;;21.00;99.90;;;;;;5073677;28;20031;-42
2023/08/13 07:21:16;;;;;;;1.75;1.10;;;21.00;99.90;;;;;;5073814;28;20103;-40
2023/08/13 07:23:42;;;;;;;1.98;1.17;;;21.00;99.90;;;;;;5073732;28;20055;-39
2023/08/13 07:26:07;;;;;;;2.55;1.20;;;21.00;99.90;;;;;;5073813;28;20031;-39
2023/08/13 07:28:34;;;;;;;1.35;1.10;;;21.00;99.90;;;;;;5106886;22;20032;-39
2023/08/13 07:31:03;;;;;;;2.40;1.20;;;21.00;99.90;;;;;;5013419;28;20026;-39
2023/08/13 07:33:30;;;;;;;2.13;1.15;;;21.00;99.90;;;;;;5013853;28;20034;-39
2023/08/13 07:35:57;;;;;;;1.50;1.05;;;21.00;99.90;;;;;;5014018;28;20022;-39
2023/08/13 07:38:22;;;;;;;1.23;1.10;;;21.00;99.90;;;;;;5013922;28;20034;-38
2023/08/13 07:40:48;;;;;;;1.45;0.80;;;21.00;99.90;;;;;;5013648;28;20602;-39
2023/08/13 07:43:14;;;;;;;1.90;1.10;;;21.00;99.90;;;;;;5013704;28;20029;-39
2023/08/13 07:45:39;;;;;;;1.20;1.02;;;21.00;99.90;;;;;;5013873;28;20471;-41
2023/08/13 07:48:05;;;;;;;1.23;1.00;;;21.00;99.90;;;;;;5013701;28;20025;-38
2023/08/13 07:50:31;;;;;;;1.20;0.90;;;21.00;99.90;;;;;;5013425;28;20022;-39
2023/08/13 07:52:57;;;;;;;1.20;1.00;;;21.00;99.90;;;;;;5013599;28;20499;-41
2023/08/13 07:55:22;;;;;;;1.10;0.80;;;21.00;99.90;;;;;;5013438;28;20034;-39
2023/08/13 07:57:48;;;;;;;2.25;0.88;;;21.00;99.90;;;;;;5012695;28;20030;-39
2023/08/13 08:00:16;;;;;;;1.40;1.00;;;21.00;99.90;;;;;;5013141;28;20049;-38
2023/08/13 08:02:42;;;;;;;1.27;1.00;;;21.00;99.90;;;;;;5013356;28;20026;-38
2023/08/13 08:05:09;;;;;;;1.40;1.00;;;21.00;99.90;;;;;;5013345;28;20022;-38
2023/08/13 08:07:35;;;;;;;1.35;1.05;;;21.00;99.90;;;;;;5013342;28;20026;-39
2023/08/13 08:10:01;;;;;;;1.27;0.90;;;21.00;99.90;;;;;;5012982;28;20570;-40
2023/08/13 08:12:27;;;;;;;1.30;1.00;;;21.00;99.90;;;;;;5013164;28;20092;-40
2023/08/13 08:14:53;;;;;;;1.13;0.85;;;21.00;99.90;;;;;;5013095;28;20483;-39
2023/08/13 08:17:19;;;;;;;1.40;1.00;;;21.00;99.90;;;;;;5013267;28;20478;-39
2023/08/13 08:19:45;;;;;;;1.65;1.05;;;21.00;99.90;;;;;;5012750;28;20069;-40
2023/08/13 08:22:11;;;;;;;1.10;0.93;;;21.00;99.90;;;;;;5013401;28;20395;-41
2023/08/13 08:24:37;;;;;;;1.35;0.90;;;21.00;99.90;;;;;;5012929;28;20022;-39
2023/08/13 08:27:03;;;;;;;3.63;1.75;;;21.00;99.90;;;;;;5012896;28;20474;-39
2023/08/13 08:29:28;;;;;;;8.57;1.90;;;21.00;99.90;;;;;;5012684;28;20045;-40
2023/08/13 08:31:54;;;;;;;5.32;2.20;;;21.00;99.90;;;;;;5011532;28;20395;-41
2023/08/13 08:34:20;;;;;;;3.45;1.70;;;21.00;99.90;;;;;;5013003;28;20080;-40
2023/08/13 08:36:45;;;;;;;4.00;2.00;;;21.00;99.90;;;;;;5012789;28;20375;-41
2023/08/13 08:39:12;;;;;;;4.47;2.10;;;21.00;99.90;;;;;;5011295;28;20132;-39
2023/08/13 08:41:45;;;;;;;3.40;1.63;;;21.00;99.90;;;;;;5012618;28;20024;-40
2023/08/13 08:44:18;;;;;;;3.63;1.60;;;21.10;99.90;;;;;;5012698;28;20033;-40
2023/08/13 08:46:45;;;;;;;2.37;1.60;;;21.10;99.90;;;;;;5012530;28;20024;-40
2023/08/13 08:49:12;;;;;;;3.45;1.90;;;21.10;99.90;;;;;;5012344;28;20077;-43
2023/08/13 08:51:38;;;;;;;5.57;1.50;;;21.10;99.90;;;;;;5012546;28;20084;-40
2023/08/13 08:54:04;;;;;;;2.50;1.33;;;21.10;99.90;;;;;;5012893;28;20025;-45
2023/08/13 08:56:30;;;;;;;1.77;1.50;;;21.10;99.90;;;;;;5012496;28;20104;-40
2023/08/13 08:58:55;;;;;;;2.50;1.65;;;21.10;99.90;;;;;;5012240;28;20551;-40
2023/08/13 09:01:21;;;;;;;2.33;1.48;;;21.10;99.90;;;;;;5012386;28;20026;-40
2023/08/13 09:03:46;;;;;;;3.60;1.30;;;21.10;99.90;;;;;;5012348;28;20108;-40
2023/08/13 09:06:12;;;;;;;2.47;1.60;;;21.10;99.90;;;;;;5012304;28;20034;-40
2023/08/13 09:08:37;;;;;;;2.90;1.20;;;21.10;99.90;;;;;;5011925;28;20025;-40
2023/08/13 09:11:03;;;;;;;4.35;1.77;;;21.20;99.90;;;;;;5010695;28;20029;-46
2023/08/13 09:13:29;;;;;;;2.03;1.30;;;21.20;99.90;;;;;;5012136;28;20084;-40
2023/08/13 09:15:54;;;;;;;2.55;1.38;;;21.20;99.90;;;;;;5012088;28;20050;-42
2023/08/13 09:18:20;;;;;;;1.85;1.33;;;21.20;99.90;;;;;;5012062;28;20320;-42
2023/08/13 09:20:48;;;;;;;2.50;1.15;;;21.20;99.90;;;;;;5011790;28;20215;-45
2023/08/13 09:23:21;;;;;;;2.28;1.30;;;21.20;99.90;;;;;;5011892;28;20026;-42
2023/08/13 09:25:54;;;;;;;3.00;1.50;;;21.20;99.90;;;;;;5012092;28;20179;-44
2023/08/13 09:28:20;;;;;;;2.45;1.48;;;21.20;99.90;;;;;;5011933;28;20079;-43
2023/08/13 09:30:46;;;;;;;3.22;1.30;;;21.30;99.90;;;;;;5011564;28;20116;-39
2023/08/13 09:33:15;;;;;;;1.45;1.15;;;21.20;99.90;;;;;;5011883;28;20101;-40
2023/08/13 09:35:42;;;;;;;2.35;1.42;;;21.20;99.90;;;;;;5011724;28;20026;-42
2023/08/13 09:38:08;;;;;;;3.97;1.40;;;21.20;99.90;;;;;;5011879;28;20037;-40
2023/08/13 09:40:34;;;;;;;2.53;1.35;;;21.30;99.90;;;;;;5011513;28;20564;-40
2023/08/13 09:43:06;;;;;;;3.05;1.25;;;21.30;99.90;;;;;;5011940;28;20025;-39
2023/08/13 09:45:32;;;;;;;4.40;1.15;;;21.30;99.90;;;;;;5011952;28;20089;-38
2023/08/13 09:48:02;;;;;;;2.60;1.35;;;21.40;99.90;;;;;;5011618;28;20029;-39
2023/08/13 09:50:31;;;;;;;2.15;1.15;;;21.40;99.90;;;;;;5011503;28;20503;-40
2023/08/13 09:52:58;;;;;;;1.40;1.23;;;21.30;99.90;;;;;;5011713;28;20034;-42
2023/08/13 09:55:29;;;;;;;1.60;1.40;;;21.40;99.90;;;;;;5012039;28;20033;-42
2023/08/13 09:57:58;;;;;;;4.20;1.30;;;21.40;99.90;;;;;;5011632;28;20101;-39
2023/08/13 10:00:24;;;;;;;1.40;0.93;;;21.40;99.90;;;;;;5011168;28;20037;-44
2023/08/13 10:02:52;;;;;;;3.75;1.33;;;21.40;99.90;;;;;;5011457;28;20397;-42
2023/08/13 10:05:18;;;;;;;1.90;1.15;;;21.40;99.90;;;;;;5011747;28;20510;-40
2023/08/13 10:07:44;;;;;;;3.80;1.13;;;21.40;99.90;;;;;;5011512;28;20030;-40
2023/08/13 10:10:10;;;;;;;1.40;1.00;;;21.40;99.90;;;;;;5011245;28;20073;-39
2023/08/13 10:12:37;;;;;;;1.52;1.10;;;21.50;99.90;;;;;;5011554;28;20483;-40
2023/08/13 10:15:04;;;;;;;1.70;1.00;;;21.50;99.90;;;;;;5011490;28;20399;-40
2023/08/13 10:17:29;;;;;;;2.40;0.93;;;21.50;99.90;;;;;;5011657;28;20065;-41
2023/08/13 10:22:46;;;;;;;1.60;0.98;;;21.50;99.90;;;;;;5015558;28;20041;-40
2023/08/13 10:25:26;;;;;;;1.58;0.90;;;21.50;99.90;;;;;;5015267;28;20080;-39
2023/08/13 10:27:53;;;;;;;1.95;1.10;;;21.50;99.90;;;;;;5015217;28;20096;-40
2023/08/13 10:30:20;;;;;;;1.85;1.23;;;21.50;99.90;;;;;;5014750;28;20041;-44
2023/08/13 10:32:50;;;;;;;1.92;1.17;;;21.50;99.90;;;;;;5015150;28;20149;-40
2023/08/13 10:35:29;;;;;;;2.03;1.25;;;21.50;99.90;;;;;;5015115;28;20022;-42
2023/08/13 10:38:00;;;;;;;1.40;1.10;;;21.50;99.90;;;;;;5015032;28;20029;-39
2023/08/13 10:40:26;;;;;;;3.58;1.15;;;21.60;99.90;;;;;;5014614;28;20029;-43
2023/08/13 10:42:53;;;;;;;2.30;1.13;;;21.50;99.90;;;;;;4997319;28;20029;-42
2023/08/13 10:45:39;;;;;;;1.85;1.10;;;21.60;99.90;;;;;;5014809;28;20101;-45
2023/08/13 10:48:06;;;;;;;3.90;1.17;;;21.50;99.90;;;;;;5014471;28;20522;-44
2023/08/13 10:50:41;;;;;;;2.47;1.30;;;21.60;99.90;;;;;;5014911;28;20030;-42
2023/08/13 10:53:10;;;;;;;2.10;1.20;;;21.60;99.90;;;;;;5015124;28;20038;-39
2023/08/13 10:55:39;;;;;;;2.33;1.10;;;21.60;99.90;;;;;;5014706;28;20033;-42
2023/08/13 10:58:06;;;;;;;1.75;1.20;;;21.60;99.90;;;;;;5014590;28;20033;-38
2023/08/13 11:00:42;;;;;;;4.78;1.92;;;21.60;99.90;;;;;;5011388;28;20030;-42
2023/08/13 11:03:27;;;;;;;3.40;1.83;;;21.60;99.90;;;;;;5014313;28;20506;-41
2023/08/13 11:05:54;;;;;;;5.47;2.22;;;21.70;99.90;;;;;;5013291;28;20074;-42
2023/08/13 11:08:22;;;;;;;3.30;2.10;;;21.70;99.90;;;;;;5014407;28;20050;-42
2023/08/13 11:10:49;;;;;;;3.53;1.98;;;21.80;99.90;;;;;;5014242;28;20103;-44
2023/08/13 11:13:16;;;;;;;4.53;1.80;;;21.70;99.90;;;;;;5014352;28;20030;-42
2023/08/13 11:15:50;;;;;;;2.22;1.80;;;21.80;99.90;;;;;;5014206;28;20052;-41
2023/08/13 11:18:15;;;;;;;3.72;2.00;;;21.80;99.90;;;;;;5014403;28;20026;-45
2023/08/13 11:20:41;;;;;;;4.47;2.00;;;21.80;99.90;;;;;;5013919;28;20420;-47
2023/08/13 11:23:07;;;;;;;3.47;1.92;;;21.80;99.90;;;;;;5014271;28;20030;-43
2023/08/13 11:25:32;;;;;;;3.22;1.90;;;21.80;99.90;;;;;;5014266;28;20033;-43
2023/08/13 11:27:59;;;;;;;4.90;2.05;;;21.80;99.90;;;;;;5014028;28;20026;-43
2023/08/13 11:30:24;;;;;;;2.15;1.70;;;21.80;99.90;;;;;;5013058;28;20038;-43
2023/08/13 11:32:51;;;;;;;3.58;1.88;;;21.80;99.90;;;;;;5013264;28;20076;-42
2023/08/13 11:35:17;;;;;;;2.72;1.50;;;21.80;99.90;;;;;;5014142;28;20025;-42
2023/08/13 11:37:43;;;;;;;2.80;1.83;;;21.80;99.90;;;;;;5014000;28;20380;-42
2023/08/13 11:40:11;;;;;;;3.65;2.10;;;21.80;99.90;;;;;;5013462;28;20030;-41
2023/08/13 11:42:57;;;;;;;3.13;1.75;;;21.80;99.90;;;;;;5013673;28;20390;-42
2023/08/13 11:45:24;;;;;;;2.55;1.60;;;21.80;99.90;;;;;;5013956;28;20469;-43
2023/08/13 11:48:07;;;;;;;3.38;1.80;;;21.80;99.90;;;;;;5013700;28;20032;-42
2023/08/13 11:50:32;;;;;;;2.35;1.80;;;21.80;99.90;;;;;;5013486;28;20030;-42
2023/08/13 11:53:26;;;;;;;2.30;1.80;;;21.80;99.90;;;;;;5013554;28;20129;-42
2023/08/13 11:55:52;;;;;;;2.08;1.67;;;21.80;99.90;;;;;;5011408;28;20439;-42
2023/08/13 11:58:19;;;;;;;2.65;1.58;;;21.80;99.90;;;;;;5013654;28;20360;-46
2023/08/13 12:00:47;;;;;;;2.03;1.70;;;21.80;99.90;;;;;;5013189;28;20029;-42
2023/08/13 12:03:13;;;;;;;3.08;1.80;;;21.80;99.90;;;;;;5013358;28;20026;-43
2023/08/13 12:05:39;;;;;;;3.42;1.75;;;21.80;99.90;;;;;;5013286;28;20072;-42
2023/08/13 12:08:09;;;;;;;2.15;1.45;;;21.80;99.90;;;;;;5013368;28;20018;-44
2023/08/13 12:10:35;;;;;;;2.13;1.55;;;21.80;99.90;;;;;;5012918;28;20045;-42
2023/08/13 12:13:01;;;;;;;3.00;1.77;;;21.80;99.90;;;;;;5013164;28;20038;-44
2023/08/13 12:15:28;;;;;;;2.67;1.70;;;21.80;99.90;;;;;;5013174;28;20033;-48
2023/08/13 12:17:55;;;;;;;2.35;1.63;;;21.80;99.90;;;;;;5013152;28;20105;-42
2023/08/13 12:20:20;;;;;;;2.58;1.60;;;21.80;99.90;;;;;;5012668;28;20026;-40
2023/08/13 12:22:46;;;;;;;3.28;1.65;;;21.80;99.90;;;;;;5013072;28;20101;-42
2023/08/13 12:25:12;;;;;;;2.85;1.80;;;21.80;99.90;;;;;;5013032;28;20037;-42
2023/08/13 12:27:37;;;;;;;2.03;1.50;;;21.80;99.90;;;;;;5012907;28;20026;-40
2023/08/13 12:30:04;;;;;;;1.98;1.40;;;21.80;99.90;;;;;;5012952;28;20073;-42
2023/08/13 12:32:30;;;;;;;3.28;1.40;;;21.80;99.90;;;;;;5013016;28;20022;-42
2023/08/13 12:34:56;;;;;;;2.33;1.52;;;21.90;99.90;;;;;;5012817;28;20026;-42
2023/08/13 12:37:22;;;;;;;2.40;1.40;;;21.90;99.90;;;;;;5013086;28;20034;-42
2023/08/13 12:39:49;;;;;;;2.13;1.67;;;21.80;99.90;;;;;;5011111;28;20399;-41
2023/08/13 12:42:14;;;;;;;2.58;1.25;;;21.90;99.90;;;;;;5012295;28;20164;-43
2023/08/13 12:44:40;;;;;;;1.70;1.58;;;21.90;99.90;;;;;;5012627;28;20109;-42
2023/08/13 12:47:06;;;;;;;1.70;1.30;;;21.90;99.90;;;;;;5012573;28;20025;-42
2023/08/13 12:49:32;;;;;;;1.80;1.60;;;21.80;99.90;;;;;;5012168;28;20026;-40